Time;durP1;ratioP1;P1;durP2;ratioP2;P2;SDS_P1;SDS_P2;PMS_P1;PMS_P2;Temp;Humidity;BMP_temperature;BMP_pressure;BME280_temperature;BME280_humidity;BME280_pressure;Samples;Min_cycle;Max_cycle;Signal;HPM_P1;HPM_P2
2023/07/20 00:01:22;;;;;;;;;;;22.60;74.80;;;;;;7384655;19;20215;-76
2023/07/20 00:03:54;;;;;;;;;;;22.60;74.90;;;;;;7383945;19;19907;-75
2023/07/20 00:06:31;;;;;;;;;;;22.60;74.90;;;;;;7385338;19;19926;-76
2023/07/20 00:09:08;;;;;;;;;;;22.60;74.60;;;;;;7383151;19;19911;-77
2023/07/20 00:11:41;;;;;;;;;;;22.60;74.70;;;;;;7385692;19;19917;-76
2023/07/20 00:14:09;;;;;;;;;;;22.50;75.00;;;;;;7382806;19;19954;-76
2023/07/20 00:16:38;;;;;;;;;;;22.50;74.90;;;;;;7403969;19;19903;-76
2023/07/20 00:19:11;;;;;;;;;;;22.50;75.10;;;;;;7383399;19;19915;-76
2023/07/20 00:21:40;;;;;;;;;;;22.40;75.00;;;;;;7386335;19;19907;-76
2023/07/20 00:24:11;;;;;;;;;;;22.40;74.90;;;;;;7384074;19;19911;-76
2023/07/20 00:26:46;;;;;;;;;;;22.40;75.00;;;;;;7383569;19;19911;-76
2023/07/20 00:29:15;;;;;;;;;;;22.30;75.20;;;;;;7381226;19;19918;-76
2023/07/20 00:31:47;;;;;;;;;;;22.30;75.30;;;;;;7401861;19;19914;-76
2023/07/20 00:34:15;;;;;;;;;;;22.20;75.50;;;;;;7383078;19;19964;-76
2023/07/20 00:36:51;;;;;;;;;;;22.10;75.80;;;;;;7382379;19;19907;-76
2023/07/20 00:39:25;;;;;;;;;;;22.10;76.20;;;;;;7382886;19;19910;-75
2023/07/20 00:41:58;;;;;;;;;;;22.00;76.30;;;;;;7385299;19;19931;-75
2023/07/20 00:44:29;;;;;;;;;;;22.00;76.60;;;;;;7385867;19;19975;-76
2023/07/20 00:47:06;;;;;;;;;;;22.00;76.80;;;;;;7384354;19;20160;-76
2023/07/20 00:49:40;;;;;;;;;;;22.00;76.80;;;;;;7405341;19;19907;-77
2023/07/20 00:52:09;;;;;;;;;;;21.90;76.90;;;;;;7385867;19;19915;-76
2023/07/20 00:54:51;;;;;;;;;;;21.90;77.00;;;;;;7385771;19;19935;-76
2023/07/20 00:57:33;;;;;;;;;;;21.90;77.80;;;;;;7384990;19;19939;-76
2023/07/20 01:00:09;;;;;;;;;;;21.90;76.60;;;;;;7388082;19;19911;-77
2023/07/20 01:02:41;;;;;;;;;;;21.90;76.40;;;;;;7385375;19;20143;-76
2023/07/20 01:05:20;;;;;;;;;;;21.90;76.30;;;;;;7384931;19;19915;-77
2023/07/20 01:08:02;;;;;;;;;;;;;;;;;;;;;
2023/07/20 01:10:45;;;;;;;;;;;21.90;76.50;;;;;;7403364;19;19918;-76
2023/07/20 01:13:15;;;;;;;;;;;21.80;76.70;;;;;;7383011;19;19927;-76
2023/07/20 01:15:46;;;;;;;;;;;21.80;77.00;;;;;;7381733;19;19914;-76
2023/07/20 01:18:15;;;;;;;;;;;21.80;77.30;;;;;;7383402;19;19910;-76
2023/07/20 01:23:57;;;;;;;;;;;21.60;77.60;;;;;;7380756;19;19966;-76
2023/07/20 01:26:41;;;;;;;;;;;21.60;77.50;;;;;;7379242;19;20253;-77
2023/07/20 01:29:30;;;;;;;;;;;21.60;76.90;;;;;;7378859;19;19936;-77
2023/07/20 01:32:04;;;;;;;;;;;21.60;76.90;;;;;;7378527;19;19921;-77
2023/07/20 01:34:40;;;;;;;;;;;21.60;77.00;;;;;;7398138;19;19907;-77
2023/07/20 01:37:21;;;;;;;;;;;21.60;76.90;;;;;;7377227;19;19915;-77
2023/07/20 01:39:54;;;;;;;;;;;21.60;77.00;;;;;;7379213;19;20144;-76
2023/07/20 01:42:23;;;;;;;;;;;21.60;77.20;;;;;;7380016;19;19911;-76
2023/07/20 01:44:53;;;;;;;;;;;21.60;77.20;;;;;;7382850;19;19911;-76
2023/07/20 01:47:28;;;;;;;;;;;21.60;77.20;;;;;;7378699;19;19919;-76
2023/07/20 01:50:11;;;;;;;;;;;21.60;77.30;;;;;;7375314;19;19963;-76
2023/07/20 01:52:43;;;;;;;;;;;21.50;77.50;;;;;;7399035;19;19994;-76
2023/07/20 01:55:12;;;;;;;;;;;21.50;77.60;;;;;;7377251;19;19914;-76
2023/07/20 01:57:40;;;;;;;;;;;21.40;77.60;;;;;;7378344;19;19936;-76
2023/07/20 02:00:10;;;;;;;;;;;21.30;77.80;;;;;;7379593;19;20232;-76
2023/07/20 02:02:44;;;;;;;;;;;21.30;78.00;;;;;;7381277;19;20219;-76
2023/07/20 02:05:12;;;;;;;;;;;21.40;77.80;;;;;;7376168;19;19917;-76
2023/07/20 02:07:41;;;;;;;;;;;21.40;77.50;;;;;;7397010;19;24054;-76
2023/07/20 02:10:09;;;;;;;;;;;21.30;77.90;;;;;;7377385;19;19943;-76
2023/07/20 02:12:38;;;;;;;7.80;3.00;;;21.30;77.70;;;;;;7381139;19;19915;-75
2023/07/20 02:15:08;;;;;;;8.35;3.10;;;21.30;76.90;;;;;;7378369;19;19911;-76
2023/07/20 02:17:37;;;;;;;7.53;2.70;;;21.20;76.90;;;;;;7378999;19;20027;-76
2023/07/20 02:20:11;;;;;;;6.43;3.17;;;21.20;77.10;;;;;;7378703;19;19992;-76
2023/07/20 02:22:42;;;;;;;8.20;3.40;;;21.20;77.50;;;;;;7399568;19;20035;-75
2023/07/20 02:25:39;;;;;;;6.32;2.83;;;21.20;77.70;;;;;;7379821;19;20227;-76
2023/07/20 02:28:57;;;;;;;8.85;3.17;;;21.10;77.70;;;;;;7379866;19;20006;-76
2023/07/20 02:38:06;;;;;;;11.40;3.53;;;20.90;78.50;;;;;;7396523;19;20361;-76
2023/07/20 02:41:03;;;;;;;12.18;3.25;;;20.90;78.60;;;;;;7376278;19;20007;-76
2023/07/20 02:43:32;;;;;;;7.65;2.83;;;20.90;77.90;;;;;;7355178;19;20007;-76
2023/07/20 02:46:01;;;;;;;6.13;2.97;;;20.90;77.80;;;;;;7397889;19;20385;-76
2023/07/20 02:48:30;;;;;;;10.68;3.83;;;20.90;77.90;;;;;;7378123;19;19999;-76
2023/07/20 02:50:59;;;;;;;9.25;3.83;;;20.90;77.90;;;;;;7375770;19;20006;-76
2023/07/20 02:53:30;;;;;;;18.60;4.00;;;20.90;78.10;;;;;;7377977;19;20007;-76
2023/07/20 02:55:59;;;;;;;;;;;20.80;78.30;;;;;;7383509;19;20037;-76
2023/07/20 02:58:27;;;;;;;7.85;3.17;;;20.80;78.10;;;;;;7404112;19;19911;-76
2023/07/20 03:00:56;;;;;;;10.18;3.10;;;20.80;78.10;;;;;;7385888;19;20358;-76
2023/07/20 03:03:25;;;;;;;6.50;3.00;;;20.70;78.10;;;;;;7385282;19;20019;-76
2023/07/20 03:05:56;;;;;;;6.82;3.00;;;20.70;78.30;;;;;;7385089;19;20013;-76
2023/07/20 03:08:25;;;;;;;8.30;3.53;;;20.60;79.00;;;;;;7385070;19;20071;-75
2023/07/20 03:11:01;;;;;;;10.93;3.30;;;20.60;78.60;;;;;;7387763;19;20007;-75
2023/07/20 03:13:30;;;;;;;5.22;3.03;;;20.60;78.80;;;;;;7410520;19;20031;-75
2023/07/20 03:15:59;;;;;;;8.32;3.33;;;20.60;78.70;;;;;;7388327;19;20028;-76
2023/07/20 03:18:28;;;;;;;9.43;3.25;;;20.60;78.70;;;;;;7387151;19;20058;-76
2023/07/20 03:21:00;;;;;;;5.50;3.03;;;20.60;78.80;;;;;;7388233;19;19998;-76
2023/07/20 03:23:29;;;;;;;4.75;3.22;;;20.60;78.70;;;;;;7389487;19;20014;-76
2023/07/20 03:26:12;;;;;;;10.07;3.63;;;20.60;78.60;;;;;;7387337;19;19998;-76
2023/07/20 03:28:44;;;;;;;13.05;3.30;;;20.50;78.60;;;;;;7408486;19;20028;-77
2023/07/20 03:31:12;;;;;;;;;;;20.60;78.70;;;;;;7389786;19;20006;-77
2023/07/20 03:33:42;;;;;;;6.47;3.10;;;20.60;78.70;;;;;;7389027;19;19939;-77
2023/07/20 03:36:40;;;;;;;11.50;3.38;;;20.60;78.20;;;;;;7389726;19;19998;-77
2023/07/20 03:39:10;;;;;;;7.13;3.78;;;20.60;78.20;;;;;;7389615;19;20035;-76
2023/07/20 03:41:43;;;;;;;5.63;3.50;;;20.60;78.10;;;;;;7384118;19;20006;-76
2023/07/20 03:44:21;;;;;;;5.10;2.83;;;20.60;78.30;;;;;;7383772;19;20023;-76
2023/07/20 03:46:50;;;;;;;8.18;3.00;;;20.50;78.30;;;;;;7383765;19;20106;-76
2023/07/20 03:49:18;;;;;;;12.00;3.65;;;20.40;78.60;;;;;;7403486;19;20007;-76
2023/07/20 03:51:47;;;;;;;8.15;3.40;;;20.40;78.60;;;;;;7384323;19;20018;-76
2023/07/20 03:54:16;;;;;;;9.10;3.40;;;20.30;78.70;;;;;;7384908;19;20018;-76
2023/07/20 03:56:47;;;;;;;8.05;3.05;;;20.30;78.80;;;;;;7386951;19;20031;-76
2023/07/20 03:59:16;;;;;;;;;;;20.30;78.60;;;;;;7384893;19;20006;-76
2023/07/20 04:01:45;;;;;;;4.53;2.90;;;20.40;78.30;;;;;;7402014;19;19935;-76
2023/07/20 04:04:13;;;;;;;9.18;4.22;;;20.40;78.40;;;;;;7403236;19;20007;-76
2023/07/20 04:06:44;;;;;;;14.85;8.68;;;20.40;78.70;;;;;;7386455;19;20032;-76
2023/07/20 04:09:18;;;;;;;18.13;8.77;;;20.40;78.70;;;;;;7383930;19;20062;-76
2023/07/20 04:11:49;;;;;;;12.80;6.80;;;20.30;78.60;;;;;;7383582;19;20018;-76
2023/07/20 04:14:18;;;;;;;;;;;20.30;78.80;;;;;;7383969;19;20011;-76
2023/07/20 04:16:51;;;;;;;7.25;3.42;;;20.30;78.70;;;;;;7381454;19;19935;-76
2023/07/20 04:19:20;;;;;;;12.02;3.78;;;20.30;78.20;;;;;;7403498;19;20003;-76
2023/07/20 04:21:49;;;;;;;8.82;3.22;;;20.30;78.20;;;;;;7383370;19;20006;-76
2023/07/20 04:24:17;;;;;;;7.25;3.10;;;20.30;78.20;;;;;;7384242;19;20003;-76
2023/07/20 04:26:49;;;;;;;9.73;3.33;;;20.30;78.30;;;;;;7383219;19;20215;-75
2023/07/20 04:29:18;;;;;;;10.57;3.40;;;20.30;78.40;;;;;;7382969;19;20013;-76
2023/07/20 04:31:48;;;;;;;7.32;3.17;;;20.40;78.30;;;;;;7384000;19;20010;-76
2023/07/20 04:34:18;;;;;;;8.75;3.17;;;20.30;77.90;;;;;;7404876;19;20293;-76
2023/07/20 04:36:56;;;;;;;5.20;2.97;;;20.30;78.30;;;;;;7382876;19;20038;-77
2023/07/20 04:39:26;;;;;;;9.20;3.30;;;20.40;78.40;;;;;;7383062;19;20011;-76
2023/07/20 04:41:58;;;;;;;8.23;2.97;;;20.40;77.50;;;;;;7383165;19;20018;-76
2023/07/20 04:44:26;;;;;;;;;;;20.40;77.40;;;;;;7382756;19;19998;-76
2023/07/20 04:46:55;;;;;;;9.18;3.35;;;20.40;77.50;;;;;;7381788;19;19919;-76
2023/07/20 04:49:24;;;;;;;5.32;3.42;;;20.40;77.70;;;;;;7403927;19;20307;-76
2023/07/20 04:51:54;;;;;;;8.68;3.45;;;20.40;77.70;;;;;;7382171;19;20406;-76
2023/07/20 04:54:23;;;;;;;17.63;3.78;;;20.40;77.70;;;;;;7382311;19;20226;-76
2023/07/20 04:56:52;;;;;;;11.88;3.40;;;20.30;77.70;;;;;;7381588;19;20003;-76
2023/07/20 04:59:23;;;;;;;16.40;3.10;;;20.40;78.10;;;;;;7381797;19;20017;-76
2023/07/20 05:01:52;;;;;;;7.85;3.60;;;20.30;78.30;;;;;;7384097;19;19998;-76
2023/07/20 05:04:23;;;;;;;9.20;4.15;;;20.30;78.80;;;;;;7405106;19;20007;-76
2023/07/20 05:06:52;;;;;;;12.60;3.65;;;20.20;79.10;;;;;;7386397;19;20230;-76
2023/07/20 05:09:21;;;;;;;9.68;3.33;;;20.20;79.60;;;;;;7384606;19;20387;-76
2023/07/20 05:11:51;;;;;;;7.82;3.65;;;20.20;79.70;;;;;;7382611;19;20019;-76
2023/07/20 05:14:23;;;;;;;8.82;3.40;;;20.30;79.80;;;;;;7381260;19;20009;-76
2023/07/20 05:16:51;;;;;;;;;;;20.30;79.50;;;;;;7381228;19;20028;-76
2023/07/20 05:19:31;;;;;;;6.07;3.55;;;20.30;79.40;;;;;;7404353;19;19926;-76
2023/07/20 05:22:04;;;;;;;9.60;3.42;;;20.40;79.40;;;;;;7385494;19;20020;-76
2023/07/20 05:24:43;;;;;;;5.00;2.97;;;20.40;79.60;;;;;;7385445;19;20067;-76
2023/07/20 05:27:12;;;;;;;5.45;3.30;;;20.40;79.60;;;;;;7384997;19;20007;-76
2023/07/20 05:29:46;;;;;;;10.05;3.53;;;20.50;79.80;;;;;;7380871;19;20374;-77
2023/07/20 05:32:18;;;;;;;12.68;3.97;;;20.40;79.80;;;;;;7379926;19;20248;-77
2023/07/20 05:34:47;;;;;;;7.10;3.60;;;20.40;80.30;;;;;;7379692;19;20223;-76
2023/07/20 05:37:16;;;;;;;10.35;4.20;;;20.40;80.80;;;;;;7401830;19;20370;-76
2023/07/20 05:39:52;;;;;;;12.00;3.95;;;20.40;81.10;;;;;;7380709;19;20225;-76
2023/07/20 05:42:21;;;;;;;10.85;3.72;;;20.40;81.30;;;;;;7380923;19;20003;-76
2023/07/20 05:44:53;;;;;;;7.18;3.92;;;20.40;81.40;;;;;;7381608;19;20087;-76
2023/07/20 05:47:24;;;;;;;9.98;3.63;;;20.50;81.50;;;;;;7380793;19;20027;-76
2023/07/20 05:50:00;;;;;;;12.55;4.13;;;20.60;81.50;;;;;;7379705;19;20006;-76
2023/07/20 05:52:54;;;;;;;13.45;4.40;;;20.60;81.30;;;;;;7401172;19;20026;-75
2023/07/20 05:55:30;;;;;;;10.73;3.90;;;20.70;81.30;;;;;;7381430;19;20013;-75
2023/07/20 05:57:59;;;;;;;9.65;4.18;;;20.70;81.50;;;;;;7380796;19;20007;-76
2023/07/20 06:00:31;;;;;;;10.38;3.95;;;20.70;81.60;;;;;;7380010;19;20023;-75
2023/07/20 06:03:00;;;;;;;11.43;4.30;;;20.80;81.90;;;;;;7381550;19;20002;-76
2023/07/20 06:05:29;;;;;;;14.07;4.15;;;20.90;81.90;;;;;;7382630;19;20038;-75
2023/07/20 06:08:00;;;;;;;10.23;3.72;;;20.90;82.00;;;;;;7379601;19;20010;-75
2023/07/20 06:10:32;;;;;;;11.60;3.92;;;21.00;82.80;;;;;;7400867;19;20010;-76
2023/07/20 06:13:09;;;;;;;10.75;5.47;;;21.10;82.10;;;;;;7383296;19;20227;-76
2023/07/20 06:15:47;;;;;;;9.90;4.30;;;21.10;82.10;;;;;;7383646;19;20003;-77
2023/07/20 06:18:20;;;;;;;11.70;3.85;;;21.20;82.20;;;;;;7383592;19;20240;-76
2023/07/20 06:20:55;;;;;;;10.82;4.35;;;21.20;82.30;;;;;;7380890;19;20003;-76
2023/07/20 06:23:24;;;;;;;10.55;3.72;;;21.30;82.50;;;;;;7381717;19;20007;-76
2023/07/20 06:26:08;;;;;;;8.77;3.90;;;21.30;82.50;;;;;;7381248;19;19998;-76
2023/07/20 06:28:36;;;;;;;13.38;3.67;;;21.40;82.70;;;;;;7412045;19;20429;-76
2023/07/20 06:31:08;;;;;;;13.85;3.70;;;21.40;82.70;;;;;;7394274;19;20007;-76
2023/07/20 06:33:38;;;;;;;12.85;3.95;;;21.40;83.60;;;;;;7390734;19;20007;-77
2023/07/20 06:39:26;;;;;;;7.97;3.95;;;21.40;82.90;;;;;;7382022;19;20582;-77
2023/07/20 06:55:28;;;;;;;12.68;3.92;;;21.30;83.60;;;;;;5397721;19;12698832;-75
2023/07/20 06:57:57;;;;;;;9.18;3.42;;;21.50;84.20;;;;;;7416632;19;20006;-75
2023/07/20 07:01:04;;;;;;;6.45;3.25;;;21.60;84.10;;;;;;7416222;19;20002;-76
2023/07/20 07:03:32;;;;;;;9.68;3.38;;;21.60;84.20;;;;;;7414191;19;20007;-75
2023/07/20 07:06:11;;;;;;;10.18;3.53;;;21.70;83.90;;;;;;7414525;19;20007;-78
2023/07/20 07:09:01;;;;;;;11.38;3.67;;;21.70;83.80;;;;;;7415021;19;20370;-76
2023/07/20 07:11:33;;;;;;;12.18;4.10;;;21.60;83.80;;;;;;7415338;19;20007;-74
2023/07/20 07:14:01;;;;;;;;;;;21.70;84.10;;;;;;7414689;19;20018;-77
2023/07/20 07:16:38;;;;;;;12.27;3.42;;;21.70;83.90;;;;;;7439452;19;19926;-75
2023/07/20 07:19:14;;;;;;;12.65;3.33;;;21.80;83.60;;;;;;7417491;19;20017;-76
2023/07/20 07:21:47;;;;;;;6.53;3.00;;;22.00;83.40;;;;;;7414660;19;20002;-76
2023/07/20 07:24:33;;;;;;;11.95;3.65;;;22.00;83.00;;;;;;7414777;19;20006;-73
2023/07/20 07:27:05;;;;;;;10.75;3.17;;;22.10;82.80;;;;;;7415929;19;20277;-73
2023/07/20 07:29:34;;;;;;;9.80;3.20;;;22.20;82.70;;;;;;7414736;19;20100;-74
2023/07/20 07:35:12;;;;;;;10.82;3.42;;;22.30;82.20;;;;;;7436857;19;20017;-78
2023/07/20 07:37:41;;;;;;;5.55;3.20;;;22.30;82.30;;;;;;7314865;19;2006902;-75
2023/07/20 07:40:16;;;;;;;16.33;3.50;;;22.40;82.00;;;;;;7437481;19;20014;-74
2023/07/20 07:43:05;;;;;;;11.55;3.25;;;22.40;81.80;;;;;;7416727;19;20118;-75
2023/07/20 07:46:06;;;;;;;9.93;3.38;;;22.40;81.50;;;;;;7415803;19;20047;-77
2023/07/20 07:48:40;;;;;;;5.72;2.65;;;22.50;81.30;;;;;;7412530;19;20002;-77
2023/07/20 07:51:16;;;;;;;10.02;2.65;;;22.50;80.80;;;;;;7413637;19;20010;-75
2023/07/20 07:53:45;;;;;;;10.77;3.30;;;22.40;80.20;;;;;;7412711;19;20003;-75
2023/07/20 07:56:34;;;;;;;6.95;2.20;;;22.50;80.30;;;;;;7386309;19;20007;-77
2023/07/20 07:59:05;;;;;;;5.88;2.00;;;22.50;79.20;;;;;;7383414;19;20003;-74
2023/07/20 08:01:50;;;;;;;5.15;1.67;;;22.60;77.40;;;;;;7405274;19;20007;-74
2023/07/20 08:04:19;;;;;;;5.35;2.20;;;22.60;76.80;;;;;;7384651;19;20095;-74
2023/07/20 08:06:48;;;;;;;4.18;1.90;;;22.70;75.90;;;;;;7385604;19;20011;-75
2023/07/20 08:09:16;;;;;;;4.93;1.92;;;22.70;75.40;;;;;;7383593;19;20003;-74
2023/07/20 08:11:45;;;;;;;3.55;1.65;;;22.40;76.30;;;;;;7383710;19;20006;-72
2023/07/20 08:14:17;;;;;;;6.05;2.15;;;22.50;75.60;;;;;;7384683;19;20279;-74
2023/07/20 08:16:45;;;;;;;4.07;1.70;;;22.50;76.50;;;;;;7400316;19;20019;-73
2023/07/20 08:19:14;;;;;;;10.20;2.88;;;22.60;75.80;;;;;;7407700;19;20074;-73
2023/07/20 08:21:43;;;;;;;4.30;2.08;;;22.70;75.90;;;;;;7384573;19;20002;-74
2023/07/20 08:24:12;;;;;;;5.93;2.25;;;22.70;75.60;;;;;;7384501;19;20288;-74
2023/07/20 08:26:43;;;;;;;10.75;2.78;;;22.70;76.60;;;;;;7384529;19;20006;-74
2023/07/20 08:29:12;;;;;;;;;;;22.80;75.80;;;;;;7383699;19;20024;-73
2023/07/20 08:31:43;;;;;;;4.95;1.58;;;22.60;75.50;;;;;;7409899;19;19919;-75
2023/07/20 08:34:12;;;;;;;9.40;1.90;;;22.70;75.40;;;;;;7388256;19;20011;-73
2023/07/20 08:36:48;;;;;;;4.18;1.67;;;22.70;74.50;;;;;;7387594;19;20007;-75
2023/07/20 08:39:17;;;;;;;12.45;2.20;;;22.80;73.80;;;;;;7383126;19;20006;-73
2023/07/20 08:41:46;;;;;;;4.65;1.90;;;22.90;73.20;;;;;;7380844;19;20011;-74
2023/07/20 08:44:15;;;;;;;7.70;1.58;;;22.90;72.40;;;;;;7380523;19;20006;-75
2023/07/20 08:46:52;;;;;;;6.68;2.00;;;23.00;71.10;;;;;;7403046;19;20308;-74
2023/07/20 08:49:24;;;;;;;3.50;2.03;;;22.90;72.90;;;;;;7385531;19;20358;-75
2023/07/20 08:52:00;;;;;;;6.10;2.10;;;23.00;73.50;;;;;;7386306;19;20014;-73
2023/07/20 08:54:36;;;;;;;5.75;1.98;;;23.10;73.50;;;;;;7380713;19;20383;-73
2023/07/20 08:57:07;;;;;;;4.65;1.75;;;23.10;73.70;;;;;;7380207;19;20027;-74
2023/07/20 08:59:41;;;;;;;5.78;2.00;;;23.10;73.80;;;;;;7381457;19;20070;-75
2023/07/20 09:02:28;;;;;;;10.43;1.80;;;23.10;73.10;;;;;;7379916;19;20343;-77
2023/07/20 09:05:00;;;;;;;3.08;1.63;;;23.10;72.70;;;;;;7379494;19;20032;-74
2023/07/20 09:07:33;;;;;;;8.32;1.63;;;23.20;71.30;;;;;;7397997;19;20020;-75
2023/07/20 09:10:08;;;;;;;6.28;1.90;;;23.30;70.80;;;;;;7381162;19;20006;-74
2023/07/20 09:12:40;;;;;;;4.15;1.88;;;23.40;69.90;;;;;;7380980;19;20006;-73
2023/07/20 09:15:11;;;;;;;3.40;1.52;;;23.50;69.40;;;;;;7381933;19;20357;-74
2023/07/20 09:17:49;;;;;;;3.23;1.30;;;23.50;67.80;;;;;;7380893;19;20031;-76
2023/07/20 09:20:20;;;;;;;5.43;1.10;;;23.50;66.70;;;;;;7380654;19;20244;-76
2023/07/20 09:22:52;;;;;;;2.03;1.33;;;23.50;66.30;;;;;;7378928;19;20006;-75
2023/07/20 09:28:07;;;;;;;2.65;1.45;;;23.50;67.70;;;;;;7382004;19;20016;-76
2023/07/20 09:30:39;;;;;;;5.75;2.00;;;23.50;68.10;;;;;;7380001;19;20020;-75
2023/07/20 09:33:22;;;;;;;13.45;1.73;;;23.60;67.50;;;;;;7379379;19;20007;-75
2023/07/20 09:35:51;;;;;;;2.05;1.30;;;23.80;66.90;;;;;;7379083;19;20007;-75
2023/07/20 09:38:20;;;;;;;4.45;1.50;;;23.80;65.70;;;;;;7379168;19;20011;-75
2023/07/20 09:40:51;;;;;;;1.73;1.08;;;23.90;65.80;;;;;;7377836;19;20309;-75
2023/07/20 09:43:21;;;;;;;2.95;1.08;;;23.70;62.50;;;;;;7400782;19;20007;-72
2023/07/20 09:45:50;;;;;;;7.22;1.70;;;23.70;64.30;;;;;;7379711;19;20262;-73
2023/07/20 09:48:34;;;;;;;4.43;1.40;;;23.70;65.90;;;;;;7378765;19;20015;-73
2023/07/20 09:51:04;;;;;;;3.90;1.20;;;23.50;64.60;;;;;;7378550;19;20287;-73
2023/07/20 09:53:34;;;;;;;2.78;1.30;;;23.60;64.00;;;;;;7377895;19;20241;-75
2023/07/20 09:56:04;;;;;;;1.57;1.00;;;23.70;63.30;;;;;;7380852;19;20427;-75
2023/07/20 09:58:37;;;;;;;3.53;1.17;;;23.80;63.30;;;;;;7402738;19;20002;-77
2023/07/20 10:01:16;;;;;;;1.35;0.90;;;23.90;61.90;;;;;;7384030;19;20402;-76
2023/07/20 10:03:48;;;;;;;2.75;1.30;;;23.80;60.00;;;;;;7379996;19;20019;-74
2023/07/20 10:06:26;;;;;;;3.80;1.30;;;23.80;61.10;;;;;;7380919;19;20035;-74
2023/07/20 10:09:03;;;;;;;1.10;1.00;;;23.90;61.80;;;;;;7383807;19;20002;-72
2023/07/20 10:11:34;;;;;;;1.75;0.98;;;23.90;61.40;;;;;;7378658;19;20013;-74
2023/07/20 10:14:06;;;;;;;;;;;24.00;61.50;;;;;;7380420;19;20007;-72
2023/07/20 10:16:38;;;;;;;;;;;24.00;61.20;;;;;;7401150;19;19926;-74
2023/07/20 10:19:20;;;;;;;3.22;0.90;;;24.00;60.10;;;;;;7378134;19;19927;-75
2023/07/20 10:21:56;;;;;;;7.80;2.50;;;24.10;60.60;;;;;;7378108;19;20009;-75
2023/07/20 10:24:26;;;;;;;1.75;1.30;;;24.30;60.90;;;;;;7377761;19;20011;-75
2023/07/20 10:26:56;;;;;;;2.25;1.20;;;24.40;59.30;;;;;;7378912;19;20011;-75
2023/07/20 10:29:27;;;;;;;5.07;1.17;;;24.60;59.30;;;;;;7377366;19;20059;-74
2023/07/20 10:31:56;;;;;;;;;;;24.60;58.90;;;;;;7379774;19;20017;-73
2023/07/20 10:34:27;;;;;;;1.35;0.98;;;24.60;59.00;;;;;;7399394;19;19931;-73
2023/07/20 10:36:56;;;;;;;2.63;1.25;;;24.60;59.00;;;;;;7377876;19;20007;-74
2023/07/20 10:39:30;;;;;;;1.25;1.15;;;24.60;59.30;;;;;;7379053;19;20006;-74
2023/07/20 10:42:09;;;;;;;2.10;1.27;;;24.70;58.80;;;;;;7378655;19;20360;-74
2023/07/20 10:44:40;;;;;;;1.88;1.20;;;24.70;58.10;;;;;;7377258;19;20015;-72
2023/07/20 10:47:16;;;;;;;3.88;1.35;;;24.80;58.40;;;;;;7378308;19;20007;-74
2023/07/20 10:50:03;;;;;;;4.45;1.35;;;24.80;58.70;;;;;;7400214;19;20011;-74
2023/07/20 10:52:43;;;;;;;1.10;1.00;;;24.70;59.00;;;;;;7398434;19;20007;-74
2023/07/20 10:55:27;;;;;;;1.85;1.02;;;24.70;59.00;;;;;;7377362;19;20020;-75
2023/07/20 10:58:28;;;;;;;3.42;1.10;;;24.70;59.00;;;;;;7377522;19;20006;-74
2023/07/20 11:00:59;;;;;;;;;;;25.00;57.70;;;;;;7379320;19;20010;-73
2023/07/20 11:03:36;;;;;;;5.18;1.30;;;25.20;57.90;;;;;;7379004;19;19911;-74
2023/07/20 11:06:46;;;;;;;1.48;1.08;;;25.60;57.40;;;;;;7381819;19;20007;-76
2023/07/20 11:09:18;;;;;;;4.25;1.10;;;25.70;57.30;;;;;;7381086;19;20271;-74
2023/07/20 11:12:29;;;;;;;2.38;1.13;;;25.70;56.50;;;;;;7377950;19;20288;-76
2023/07/20 11:15:00;;;;;;;1.75;1.00;;;25.80;57.10;;;;;;7377239;19;20019;-75
2023/07/20 11:17:38;;;;;;;2.75;1.10;;;25.80;56.20;;;;;;7376368;19;20402;-76
2023/07/20 11:20:29;;;;;;;1.20;1.08;;;25.90;56.50;;;;;;7376822;19;20026;-75
2023/07/20 11:26:04;;;;;;;4.38;1.38;;;25.90;56.50;;;;;;7374721;19;20011;-75
2023/07/20 11:28:33;;;;;;;2.03;1.10;;;25.90;54.80;;;;;;7399034;19;20228;-76
2023/07/20 11:31:02;;;;;;;1.23;1.00;;;26.00;55.10;;;;;;7381804;19;20013;-75
2023/07/20 11:33:31;;;;;;;1.52;1.15;;;26.00;54.70;;;;;;7383442;19;20015;-76
2023/07/20 11:36:22;;;;;;;3.65;1.33;;;26.10;54.80;;;;;;7386313;19;20007;-77
2023/07/20 11:38:51;;;;;;;2.15;1.25;;;26.00;54.80;;;;;;7384729;19;20011;-72
2023/07/20 11:41:23;;;;;;;2.45;1.05;;;26.00;53.60;;;;;;7381619;19;20370;-74
2023/07/20 11:43:52;;;;;;;1.25;1.00;;;26.10;53.80;;;;;;7381292;19;20027;-73
2023/07/20 11:46:21;;;;;;;1.00;0.90;;;26.20;54.10;;;;;;7402992;19;20223;-73
2023/07/20 11:48:49;;;;;;;3.25;1.30;;;26.20;54.30;;;;;;7383679;19;20014;-73
2023/07/20 11:51:20;;;;;;;2.80;1.42;;;26.30;55.00;;;;;;7382425;19;20023;-74
2023/07/20 11:53:50;;;;;;;2.50;1.83;;;26.30;55.20;;;;;;7382522;19;20350;-73
2023/07/20 11:56:18;;;;;;;3.92;1.20;;;26.40;55.50;;;;;;7381830;19;20019;-73
2023/07/20 11:58:50;;;;;;;1.40;1.17;;;26.40;55.40;;;;;;7381232;19;20247;-75
2023/07/20 12:01:20;;;;;;;3.10;1.23;;;26.40;55.80;;;;;;7402824;19;20111;-74
2023/07/20 12:03:51;;;;;;;3.38;1.58;;;26.40;55.60;;;;;;7382834;19;20011;-75
2023/07/20 12:06:20;;;;;;;;;;;26.50;55.70;;;;;;7383195;19;20011;-75
2023/07/20 12:08:49;;;;;;;4.20;1.23;;;26.60;55.60;;;;;;7381639;19;19917;-75
2023/07/20 12:11:38;;;;;;;4.45;1.38;;;26.70;55.20;;;;;;7380521;19;20027;-75
2023/07/20 12:14:13;;;;;;;4.13;1.20;;;26.70;54.50;;;;;;7381025;19;20793;-75
2023/07/20 12:16:42;;;;;;;5.55;1.27;;;26.60;54.50;;;;;;7401585;19;20011;-75
2023/07/20 12:19:41;;;;;;;4.63;1.45;;;26.50;54.60;;;;;;7383332;19;20366;-77
2023/07/20 12:22:52;;;;;;;3.10;1.67;;;26.50;55.00;;;;;;7384313;19;20007;-78
2023/07/20 12:25:23;;;;;;;2.25;1.30;;;26.70;55.30;;;;;;7381490;19;20006;-73
2023/07/20 12:27:52;;;;;;;4.20;1.30;;;26.70;54.00;;;;;;7381685;19;20020;-74
2023/07/20 12:30:30;;;;;;;3.88;1.50;;;26.80;54.00;;;;;;7382851;19;20006;-74
2023/07/20 12:32:59;;;;;;;2.47;1.05;;;26.90;54.40;;;;;;7384763;19;20078;-74
2023/07/20 12:35:28;;;;;;;3.65;1.27;;;27.00;53.90;;;;;;7383472;19;20006;-75
2023/07/20 12:37:57;;;;;;;1.58;1.17;;;27.10;54.30;;;;;;7383798;19;20011;-75
2023/07/20 12:40:26;;;;;;;1.92;1.20;;;27.10;53.40;;;;;;7402786;19;19998;-75
2023/07/20 12:43:04;;;;;;;1.40;1.17;;;27.20;53.10;;;;;;7382247;19;20003;-75
2023/07/20 12:45:36;;;;;;;2.20;1.48;;;27.20;53.50;;;;;;7381075;19;20054;-74
2023/07/20 12:48:06;;;;;;;1.90;1.50;;;27.20;54.10;;;;;;7381782;19;20238;-75
2023/07/20 12:50:34;;;;;;;3.90;2.03;;;27.10;53.20;;;;;;7382085;19;20017;-74
2023/07/20 12:53:03;;;;;;;5.63;1.90;;;27.10;53.80;;;;;;7380950;19;20381;-73
2023/07/20 12:55:36;;;;;;;1.98;1.30;;;27.10;53.10;;;;;;7401880;19;20109;-75
2023/07/20 12:58:08;;;;;;;3.38;1.15;;;27.20;53.40;;;;;;7383226;19;20036;-73
2023/07/20 13:00:40;;;;;;;1.50;1.10;;;27.20;53.10;;;;;;7382598;19;20007;-76
2023/07/20 13:03:16;;;;;;;1.90;1.45;;;27.30;53.30;;;;;;7381302;19;20010;-75
2023/07/20 13:05:50;;;;;;;7.20;1.77;;;27.50;53.40;;;;;;7381335;19;20007;-76
2023/07/20 13:08:25;;;;;;;1.80;1.40;;;27.60;52.50;;;;;;7381526;19;20018;-75
2023/07/20 13:10:55;;;;;;;2.55;1.10;;;27.70;52.60;;;;;;7379511;19;20019;-75
2023/07/20 13:13:27;;;;;;;2.83;1.35;;;27.80;52.90;;;;;;7401559;19;20003;-75
2023/07/20 13:15:58;;;;;;;7.32;1.65;;;28.00;52.70;;;;;;7380997;19;20271;-76
2023/07/20 13:21:29;;;;;;;6.93;1.25;;;27.90;51.50;;;;;;7382372;19;20373;-78
2023/07/20 13:24:00;;;;;;;3.13;1.02;;;27.50;51.40;;;;;;7380548;19;20374;-76
2023/07/20 13:26:32;;;;;;;1.55;1.10;;;27.40;51.90;;;;;;7379532;19;20011;-72
2023/07/20 13:32:23;;;;;;;1.88;1.10;;;27.30;52.00;;;;;;7381156;19;20370;-74
2023/07/20 13:35:11;;;;;;;1.88;1.23;;;27.50;52.30;;;;;;7401790;19;20023;-80
2023/07/20 13:37:40;;;;;;;2.72;0.95;;;27.50;51.30;;;;;;7379942;19;20264;-72
2023/07/20 13:40:16;;;;;;;4.40;1.10;;;27.70;51.70;;;;;;7400494;19;20007;-77
2023/07/20 13:46:04;;;;;;;1.77;1.10;;;27.60;51.30;;;;;;7379342;19;20066;-79
2023/07/20 13:49:03;;;;;;;1.52;1.10;;;27.60;51.20;;;;;;7380695;19;20216;-79
2023/07/20 13:51:38;;;;;;;1.50;1.00;;;27.50;51.10;;;;;;7378924;19;20227;-74
2023/07/20 13:54:07;;;;;;;4.55;1.17;;;27.60;51.10;;;;;;7376828;19;20616;-74
2023/07/20 13:56:38;;;;;;;1.23;1.10;;;27.70;50.70;;;;;;7378558;19;20002;-74
2023/07/20 13:59:07;;;;;;;1.42;1.17;;;28.00;50.70;;;;;;7378340;19;20101;-75
2023/07/20 14:02:08;;;;;;;3.50;1.10;;;28.10;50.10;;;;;;7399332;19;20007;-74
2023/07/20 14:04:37;;;;;;;3.47;1.00;;;28.40;50.10;;;;;;7383985;19;20006;-76
2023/07/20 14:07:11;;;;;;;2.55;1.10;;;28.50;50.20;;;;;;7378930;19;20013;-73
2023/07/20 14:09:40;;;;;;;4.03;1.27;;;28.60;50.10;;;;;;7381586;19;20068;-76
2023/07/20 14:12:12;;;;;;;6.75;1.20;;;28.60;49.60;;;;;;7382496;19;20013;-75
2023/07/20 14:14:40;;;;;;;3.55;1.23;;;28.50;49.70;;;;;;7383516;19;20047;-74
2023/07/20 14:17:12;;;;;;;2.25;1.00;;;28.40;50.00;;;;;;7380820;19;20010;-76
2023/07/20 14:19:41;;;;;;;1.90;1.08;;;28.40;49.70;;;;;;7402042;19;20011;-73
2023/07/20 14:22:14;;;;;;;15.25;1.27;;;28.30;49.20;;;;;;7379494;19;20253;-77